Time;durP1;ratioP1;P1;durP2;ratioP2;P2;SDS_P1;SDS_P2;PMS_P1;PMS_P2;Temp;Humidity;BMP_temperature;BMP_pressure;BME280_temperature;BME280_humidity;BME280_pressure;Samples;Min_cycle;Max_cycle;Signal;HPM_P1;HPM_P2
2022/05/11 00:00:00;;;;;;;;;9.67;8.67;;;;;21.27;44.87;101106.31;5096988;27;45341;-41
2022/05/11 00:02:25;;;;;;;;;8.00;7.00;;;;;21.22;45.46;101103.41;5096479;27;45318;-44
2022/05/11 00:04:51;;;;;;;;;9.00;7.33;;;;;21.09;45.76;101088.00;5097167;27;45283;-41
2022/05/11 00:07:16;;;;;;;;;8.75;7.50;;;;;21.14;46.01;101101.72;5096366;27;47161;-41
2022/05/11 00:09:41;;;;;;;;;12.33;11.00;;;;;21.13;46.06;101100.91;5096474;27;45392;-41
2022/05/11 00:12:08;;;;;;;;;12.00;11.67;;;;;21.10;45.66;101108.59;5096852;27;45351;-41
2022/05/11 00:14:34;;;;;;;;;11.00;9.67;;;;;21.04;46.05;101110.25;5096657;27;45229;-41
2022/05/11 00:17:00;;;;;;;;;13.33;10.00;;;;;21.04;46.35;101109.44;5096231;27;46256;-41
2022/05/11 00:19:27;;;;;;;;;13.25;8.00;;;;;21.03;45.87;101097.78;5096402;27;45421;-40
2022/05/11 00:21:52;;;;;;;;;11.67;8.67;;;;;20.99;44.70;101093.00;5096497;27;45484;-41
2022/05/11 00:24:18;;;;;;;;;9.67;9.67;;;;;20.90;45.42;101093.19;5096576;27;45526;-41
2022/05/11 00:26:43;;;;;;;;;10.67;10.67;;;;;20.85;46.04;101089.44;5096214;27;45951;-42
2022/05/11 00:29:09;;;;;;;;;11.33;10.33;;;;;20.78;45.44;101089.44;5096378;27;45367;-39
2022/05/11 00:31:34;;;;;;;;;9.00;9.00;;;;;20.70;47.15;101083.38;5096281;27;45383;-41
2022/05/11 00:34:00;;;;;;;;;5.00;0.67;;;;;20.65;47.38;101081.31;5096828;27;45413;-40
2022/05/11 00:36:25;;;;;;;;;11.00;8.00;;;;;20.58;47.44;101069.63;5094937;27;45525;-41
2022/05/11 00:38:50;;;;;;;;;8.33;8.33;;;;;20.55;46.74;101070.03;5096182;27;45508;-40
2022/05/11 00:41:16;;;;;;;;;9.00;8.00;;;;;20.52;47.75;101063.19;5096220;27;46083;-40
2022/05/11 00:43:55;;;;;;;;;9.67;8.33;;;;;20.47;46.93;101064.78;5098337;27;45425;-40
2022/05/11 00:46:42;;;;;;;;;7.00;7.00;;;;;20.44;46.61;101069.56;5099870;27;46283;-40
2022/05/11 00:49:33;;;;;;;;;11.00;9.67;;;;;20.40;47.33;101059.38;5099881;27;45285;-41
2022/05/11 00:52:04;;;;;;;;;5.00;5.00;;;;;20.43;47.21;101058.94;5100140;27;45330;-40
2022/05/11 00:54:34;;;;;;;;;7.00;7.00;;;;;20.46;47.32;101052.31;5099893;27;45422;-40
2022/05/11 00:57:02;;;;;;;;;9.00;9.00;;;;;20.43;47.15;101045.44;5099529;27;47407;-40
2022/05/11 00:59:36;;;;;;;;;9.67;8.00;;;;;20.43;47.51;101046.28;5099763;27;45354;-40
2022/05/11 01:02:06;;;;;;;;;10.00;9.33;;;;;20.41;47.35;101047.53;5099550;27;45230;-41
2022/05/11 01:04:39;;;;;;;;;11.00;9.00;;;;;20.36;47.26;101033.81;5099574;27;45539;-41
2022/05/11 01:07:07;;;;;;;;;8.00;7.33;;;;;20.39;47.65;101046.88;5099689;27;45493;-41
2022/05/11 01:09:32;;;;;;;;;9.00;7.67;;;;;20.36;47.11;101033.81;5099170;27;45329;-41
2022/05/11 01:12:00;;;;;;;;;8.67;8.00;;;;;20.33;47.34;101028.78;5099946;27;45340;-41
2022/05/11 01:14:32;;;;;;;;;8.00;7.00;;;;;20.33;47.14;101026.09;5099555;27;45279;-41
2022/05/11 01:16:58;;;;;;;;;11.67;10.00;;;;;20.30;47.41;101027.31;5099179;27;46960;-41
2022/05/11 01:19:29;;;;;;;;;11.00;8.00;;;;;20.29;47.47;101019.44;5099546;27;45235;-41
2022/05/11 01:22:13;;;;;;;;;9.67;7.00;;;;;20.24;47.00;101008.41;5099435;27;45507;-41
2022/05/11 01:24:42;;;;;;;;;11.67;9.00;;;;;20.25;47.61;101020.88;5099398;27;45319;-41
2022/05/11 01:27:26;;;;;;;;;10.00;8.00;;;;;20.22;47.62;101015.88;5098949;27;47038;-41
2022/05/11 01:29:53;;;;;;;;;10.33;7.33;;;;;20.23;48.00;101012.16;5099323;27;45441;-41
2022/05/11 01:32:20;;;;;;;;;8.00;8.00;;;;;20.22;48.16;101015.88;5099658;27;45324;-40
2022/05/11 01:34:48;;;;;;;;;7.00;7.00;;;;;20.19;48.28;101009.84;5099595;27;45265;-40
2022/05/11 01:37:14;;;;;;;;;8.67;7.67;;;;;20.18;48.42;101016.31;5098690;27;47124;-41
2022/05/11 01:39:39;;;;;;;;;6.00;6.00;;;;;20.18;47.91;101013.59;5098730;27;45348;-41
2022/05/11 01:42:05;;;;;;;;;7.00;7.00;;;;;20.16;48.22;101014.81;5098841;27;45623;-40
2022/05/11 01:44:30;;;;;;;;;9.00;7.00;;;;;20.15;48.53;101011.28;5099248;27;45376;-40
2022/05/11 01:46:59;;;;;;;;;7.00;7.00;;;;;20.12;48.34;101003.59;5098774;27;47161;-40
2022/05/11 01:49:27;;;;;;;;;9.00;8.00;;;;;20.01;48.62;100995.25;5098610;27;45441;-40
2022/05/11 01:51:53;;;;;;;;;6.33;6.33;;;;;20.11;48.52;101009.22;5098797;27;45367;-41
2022/05/11 01:54:18;;;;;;;;;9.00;8.67;;;;;20.10;48.77;101015.63;5098096;27;45471;-40
2022/05/11 01:56:43;;;;;;;;;11.33;8.00;;;;;20.09;48.98;101009.38;5098314;27;45312;-40
2022/05/11 01:59:09;;;;;;;;;8.33;6.33;;;;;20.06;48.92;101006.28;5114703;27;45422;-41
2022/05/11 02:01:39;;;;;;;;;7.33;7.33;;;;;20.08;48.72;101017.69;5098774;27;45351;-41
2022/05/11 02:07:49;;;;;;;;;8.00;7.33;;;;;20.01;49.08;101001.47;5098740;27;45340;-41
2022/05/11 02:09:34;;;;;;;;;8.33;7.00;;;;;20.01;49.43;100998.75;5098258;27;45283;-40
2022/05/11 02:11:59;;;;;;;;;9.00;8.33;;;;;20.02;49.33;101010.44;5097764;27;45332;-40
2022/05/11 02:14:25;;;;;;;;;9.00;7.67;;;;;20.05;49.11;101010.00;5098792;27;45469;-41
2022/05/11 02:16:50;;;;;;;;;9.33;8.00;;;;;20.02;49.26;101008.56;5097997;27;46335;-40
2022/05/11 02:19:15;;;;;;;;;11.33;8.67;;;;;20.03;49.15;101012.09;5098258;27;45356;-41
2022/05/11 02:21:41;;;;;;;;;10.33;8.33;;;;;20.01;49.10;101000.63;5098297;27;45323;-40
2022/05/11 02:24:06;;;;;;;;;9.00;8.00;;;;;20.00;49.01;101002.50;5098206;27;45341;-41
2022/05/11 02:26:33;;;;;;;;;7.00;7.00;;;;;19.99;49.46;101003.56;5098041;27;45388;-41
2022/05/11 02:28:59;;;;;;;;;9.33;8.33;;;;;19.97;49.58;100999.38;5098235;27;45499;-42
2022/05/11 02:31:24;;;;;;;;;11.67;9.00;;;;;19.96;49.33;100997.72;5098235;27;45277;-40
2022/05/11 02:33:49;;;;;;;;;9.00;9.00;;;;;19.94;49.25;100990.66;5098250;27;45379;-41
2022/05/11 02:36:15;;;;;;;;;10.00;8.33;;;;;19.96;49.44;101000.41;5096368;27;45449;-40
2022/05/11 02:38:42;;;;;;;;;14.67;11.00;;;;;19.90;49.17;100993.97;5097897;27;45265;-41
2022/05/11 02:41:08;;;;;;;;;10.00;8.33;;;;;19.68;49.14;100968.97;5097878;27;45529;-40
2022/05/11 02:43:33;;;;;;;;;9.00;8.67;;;;;19.74;49.54;100992.44;5098186;27;45357;-41
2022/05/11 02:45:58;;;;;;;;;15.00;9.33;;;;;19.73;49.72;100995.34;5097708;27;45647;-41
2022/05/11 02:48:25;;;;;;;;;11.00;10.33;;;;;19.68;50.18;100991.38;5097681;27;45414;-41
2022/05/11 02:50:58;;;;;;;;;12.00;12.00;;;;;19.66;50.20;100988.03;5097889;27;45189;-41
2022/05/11 02:53:26;;;;;;;;;13.00;10.00;;;;;19.64;49.46;100987.41;5097856;27;45272;-40
2022/05/11 02:55:53;;;;;;;;;10.00;10.00;;;;;19.57;49.53;100981.13;5097521;27;46238;-41
2022/05/11 02:58:23;;;;;;;;;16.33;12.00;;;;;19.53;50.50;100990.66;5097509;27;45458;-41
2022/05/11 03:00:51;;;;;;;;;9.33;9.33;;;;;19.52;50.55;100980.88;5097626;27;45454;-41
2022/05/11 03:03:18;;;;;;;;;11.67;9.00;;;;;19.47;49.93;100982.50;5097323;27;45399;-41
2022/05/11 03:05:44;;;;;;;;;16.00;12.33;;;;;19.34;51.36;100969.78;5097282;27;46263;-41
2022/05/11 03:08:10;;;;;;;;;10.33;10.33;;;;;19.37;51.29;100982.88;5097334;27;45291;-41
2022/05/11 03:10:37;;;;;;;;;12.67;11.00;;;;;19.34;51.48;100980.56;5097400;27;45707;-42
2022/05/11 03:13:03;;;;;;;;;9.67;9.00;;;;;19.31;51.29;100980.97;5097753;27;45531;-42
2022/05/11 03:15:29;;;;;;;;;9.00;9.00;;;;;19.27;51.60;100983.22;5097333;27;46921;-41
2022/05/11 03:17:54;;;;;;;;;11.33;8.67;;;;;19.27;51.17;100987.78;5097512;27;45469;-41
2022/05/11 03:20:22;;;;;;;;;10.33;8.67;;;;;19.19;50.75;100978.81;5097314;27;45465;-41
2022/05/11 03:22:50;;;;;;;;;11.00;10.00;;;;;19.24;51.79;100985.50;5097396;27;45467;-42
2022/05/11 03:25:16;;;;;;;;;9.33;9.33;;;;;19.21;51.26;100986.72;5097221;27;45397;-41
2022/05/11 03:27:41;;;;;;;;;11.67;9.00;;;;;19.07;51.40;100964.22;5097091;27;45500;-42
2022/05/11 03:30:07;;;;;;;;;11.33;9.00;;;;;19.16;50.94;100981.06;5097540;27;45407;-41
2022/05/11 03:35:17;;;;;;;;;12.00;9.00;;;;;19.07;51.57;100985.78;5097031;27;45299;-41
2022/05/11 03:37:42;;;;;;;;;9.33;9.33;;;;;19.05;50.97;100974.38;5096956;27;45502;-45
2022/05/11 03:40:09;;;;;;;;;7.00;5.33;;;;;19.03;51.15;100972.91;5097000;27;45341;-41
2022/05/11 03:42:36;;;;;;;;;10.00;9.33;;;;;19.00;51.61;100989.47;5097177;27;45419;-41
2022/05/11 03:45:26;;;;;;;;;12.50;9.50;;;;;18.96;51.58;100983.63;5096931;27;45688;-41
2022/05/11 03:47:52;;;;;;;;;10.67;9.67;;;;;18.95;52.22;100976.56;5095385;27;45407;-40
2022/05/11 03:50:22;;;;;;;;;10.33;10.00;;;;;18.95;51.99;100980.09;5096845;27;45444;-41
2022/05/11 03:52:48;;;;;;;;;10.67;8.67;;;;;18.90;51.84;100979.03;5097426;27;45257;-40
2022/05/11 03:55:13;;;;;;;;;13.33;9.67;;;;;18.87;52.01;100976.72;5096536;27;47324;-40
2022/05/11 03:57:41;;;;;;;;;13.00;9.00;;;;;18.77;52.04;100962.75;5096588;27;45395;-41
2022/05/11 04:00:13;;;;;;;;;18.00;11.33;;;;;18.82;52.31;100973.78;5095672;27;45354;-40
2022/05/11 04:02:40;;;;;;;;;13.33;10.67;;;;;18.79;52.40;100977.69;5096686;27;45326;-40
2022/05/11 04:05:07;;;;;;;;;11.67;10.00;;;;;18.76;52.67;100978.09;5096498;27;48890;-41
2022/05/11 04:07:33;;;;;;;;;15.33;12.67;;;;;18.70;53.11;100974.28;5096319;27;45496;-41
2022/05/11 04:09:58;;;;;;;;;9.67;9.67;;;;;18.73;52.91;100980.34;5096719;27;45490;-40
2022/05/11 04:12:26;;;;;;;;;14.00;11.33;;;;;18.72;53.19;100984.91;5096751;27;45318;-40
2022/05/11 04:14:52;;;;;;;;;16.67;10.67;;;;;18.71;53.48;100980.53;5096450;27;46357;-40
2022/05/11 04:17:17;;;;;;;;;12.67;11.67;;;;;18.71;53.38;100991.31;5096082;27;45347;-41
2022/05/11 04:19:43;;;;;;;;;12.00;9.00;;;;;18.73;53.34;100989.25;5096196;27;45386;-40
2022/05/11 04:22:09;;;;;;;;;15.33;14.67;;;;;18.74;53.59;100987.38;5096908;27;45338;-40
2022/05/11 04:24:34;;;;;;;;;12.67;10.00;;;;;18.78;53.31;100991.38;5096299;27;46458;-40
2022/05/11 04:27:00;;;;;;;;;13.00;12.00;;;;;18.80;53.42;100994.72;5096427;27;45345;-40
2022/05/11 04:29:25;;;;;;;;;17.33;10.67;;;;;18.80;53.56;100989.31;5096462;27;45390;-41
2022/05/11 04:31:55;;;;;;;;;15.33;13.33;;;;;18.80;53.29;100989.31;5096329;27;45367;-40
2022/05/11 04:34:21;;;;;;;;;12.00;12.00;;;;;18.86;53.94;100994.75;5096526;27;46291;-40
2022/05/11 04:36:46;;;;;;;;;12.67;12.33;;;;;18.91;53.50;100997.69;5095215;27;45170;-41
2022/05/11 04:39:12;;;;;;;;;13.00;13.00;;;;;18.89;52.53;100980.91;5096297;27;45330;-40
2022/05/11 04:41:37;;;;;;;;;19.33;18.33;;;;;18.85;53.84;100992.25;5096359;27;45318;-41
2022/05/11 04:44:03;;;;;;;;;16.33;15.00;;;;;18.86;53.85;100989.38;5095844;27;46846;-41
2022/05/11 04:46:28;;;;;;;;;19.33;14.33;;;;;18.87;53.96;100985.63;5096522;27;45430;-41
2022/05/11 04:49:16;;;;;;;;;23.00;17.33;;;;;18.90;53.82;100990.63;5096090;27;46246;-41
2022/05/11 04:51:39;;;;;;;;;21.00;17.00;;;;;18.90;53.97;100985.25;5096016;27;45606;-41
2022/05/11 04:54:04;;;;;;;;;20.33;19.00;;;;;18.93;53.39;100984.88;5096152;27;45510;-40
2022/05/11 04:56:32;;;;;;;;;17.67;14.33;;;;;18.93;53.91;100981.34;5095774;27;45430;-41
2022/05/11 04:58:58;;;;;;;;;15.00;15.00;;;;;18.93;53.75;100982.16;5095984;27;45251;-41
2022/05/11 05:01:24;;;;;;;;;15.67;12.00;;;;;18.85;54.04;100965.31;5096237;27;45324;-40
2022/05/11 05:03:50;;;;;;;;;18.67;17.00;;;;;18.97;54.05;100984.47;5095741;27;45453;-41
2022/05/11 05:06:15;;;;;;;;;14.33;13.33;;;;;18.98;53.92;100984.28;5095860;27;45394;-40
2022/05/11 05:08:41;;;;;;;;;13.33;13.33;;;;;19.02;53.93;100979.31;5095896;27;45177;-40
2022/05/11 05:11:06;;;;;;;;;17.67;16.67;;;;;19.09;53.67;100978.34;5095914;27;45567;-41
2022/05/11 05:13:31;;;;;;;;;15.00;14.67;;;;;19.14;53.43;100992.06;5095677;27;47013;-42
2022/05/11 05:15:57;;;;;;;;;14.33;14.33;;;;;19.16;53.40;100986.47;5095756;27;45410;-42
2022/05/11 05:18:22;;;;;;;;;15.67;14.33;;;;;19.15;53.05;100988.34;5095965;27;45319;-41
2022/05/11 05:20:48;;;;;;;;;17.33;15.33;;;;;19.17;52.66;100983.59;5096039;27;45554;-41
2022/05/11 05:23:13;;;;;;;;;18.67;15.00;;;;;19.22;52.86;100983.00;5095431;27;46287;-40
2022/05/11 05:25:38;;;;;;;;;19.33;12.67;;;;;19.24;52.65;100985.50;5095559;27;45304;-40
2022/05/11 05:31:06;;;;;;;;;14.33;11.67;;;;;19.24;52.33;100974.69;5097559;27;45355;-40
2022/05/11 05:33:35;;;;;;;;;20.00;14.00;;;;;19.34;51.84;100984.13;5098865;27;46533;-41
2022/05/11 05:36:02;;;;;;;;;13.00;12.33;;;;;19.35;52.00;100990.34;5098979;27;45335;-41
2022/05/11 05:38:28;;;;;;;;;18.33;15.00;;;;;19.35;51.71;100984.94;5099267;27;45422;-42
2022/05/11 05:40:55;;;;;;;;;15.67;11.00;;;;;19.39;51.31;100983.53;5099064;27;45597;-42
2022/05/11 05:43:21;;;;;;;;;16.33;13.67;;;;;19.29;50.90;100970.38;5099010;27;45447;-41
2022/05/11 05:45:53;;;;;;;;;11.33;11.00;;;;;19.42;50.84;100988.50;5098942;27;45391;-41
2022/05/11 05:48:20;;;;;;;;;17.67;13.33;;;;;19.42;50.75;100996.59;5098938;27;45502;-41
2022/05/11 05:50:46;;;;;;;;;12.00;11.33;;;;;19.44;50.58;100989.16;5099345;27;45313;-41
2022/05/11 05:53:11;;;;;;;;;14.67;13.00;;;;;19.50;50.36;101001.00;5098510;27;46183;-41
2022/05/11 05:55:37;;;;;;;;;9.67;9.00;;;;;19.52;50.01;100996.25;5080474;27;45509;-41
2022/05/11 05:58:03;;;;;;;;;14.67;13.00;;;;;19.54;49.76;100994.16;5098667;27;45404;-41
2022/05/11 06:00:29;;;;;;;;;14.33;13.67;;;;;19.55;49.81;100987.72;5099060;27;45396;-41
2022/05/11 06:02:56;;;;;;;;;17.33;15.67;;;;;19.62;49.96;101007.53;5098276;27;46242;-41
2022/05/11 06:05:21;;;;;;;;;12.67;12.67;;;;;19.63;49.81;100995.69;5098577;27;45304;-41
2022/05/11 06:07:47;;;;;;;;;11.67;11.00;;;;;19.61;49.28;101001.31;5098796;27;45251;-41
2022/05/11 06:10:13;;;;;;;;;13.67;11.00;;;;;19.68;49.34;101004.06;5098610;27;45394;-41
2022/05/11 06:12:38;;;;;;;;;13.00;11.67;;;;;19.60;49.32;100985.28;5098177;27;45420;-41
2022/05/11 06:15:05;;;;;;;;;15.67;14.67;;;;;19.72;48.80;100993.66;5098229;27;45330;-41
2022/05/11 06:17:32;;;;;;;;;15.00;13.67;;;;;19.82;48.69;101000.38;5098715;27;45450;-41
2022/05/11 06:19:57;;;;;;;;;16.33;14.00;;;;;19.87;49.17;100997.88;5098750;27;45347;-42
2022/05/11 06:22:25;;;;;;;;;12.33;11.00;;;;;19.84;48.57;100982.09;5098212;27;45414;-41
2022/05/11 06:24:50;;;;;;;;;10.33;9.67;;;;;20.00;48.31;100999.81;5098235;27;45381;-42
2022/05/11 06:27:19;;;;;;;;;12.67;10.00;;;;;20.02;47.82;100995.06;5098206;27;45322;-41
2022/05/11 06:29:56;;;;;;;;;11.00;10.00;;;;;20.09;47.90;100992.34;5098515;27;45596;-41
2022/05/11 06:32:23;;;;;;;;;12.00;11.67;;;;;20.15;47.85;100991.56;5097991;27;45412;-43
2022/05/11 06:34:49;;;;;;;;;10.00;10.00;;;;;20.19;47.56;100999.06;5098114;27;45371;-42
2022/05/11 06:37:15;;;;;;;;;8.67;8.67;;;;;20.16;47.28;100983.25;5098229;27;45453;-40
2022/05/11 06:39:40;;;;;;;;;12.00;10.00;;;;;20.26;47.12;100996.34;5098194;27;45363;-42
2022/05/11 06:42:12;;;;;;;;;12.00;12.00;;;;;20.32;46.88;100990.16;5097368;27;45386;-41
2022/05/11 06:44:37;;;;;;;;;12.67;12.00;;;;;20.39;47.08;100987.44;5113689;27;45400;-41
2022/05/11 06:47:04;;;;;;;;;17.00;14.00;;;;;20.46;46.79;100988.28;5097969;27;45574;-43
2022/05/11 06:49:30;;;;;;;;;12.00;10.67;;;;;20.58;46.65;100978.56;5098554;27;45323;-41
2022/05/11 06:51:56;;;;;;;;;13.00;10.33;;;;;20.82;46.25;100987.94;5097571;27;46283;-41
2022/05/11 06:59:56;;;;;;;;;11.33;9.33;;;;;22.66;42.74;100976.63;5098023;27;45373;-41
2022/05/11 07:02:23;;;;;;;;;13.33;10.00;;;;;23.46;41.32;100972.34;5097236;27;46177;-40
2022/05/11 07:04:49;;;;;;;;;3.75;3.75;;;;;24.28;39.38;100986.41;5097891;27;45394;-42
2022/05/11 07:07:15;;;;;;;;;12.50;9.50;;;;;25.04;37.90;100976.63;5097757;27;45272;-41
2022/05/11 07:09:41;;;;;;;;;9.00;8.25;;;;;25.94;35.94;100969.88;5097780;27;45351;-42
2022/05/11 07:12:22;;;;;;;;;8.75;7.00;;;;;27.06;35.00;100969.91;5097439;27;45959;-41
2022/05/11 07:14:53;;;;;;;;;20.25;13.25;;;;;28.94;34.16;100967.63;5097458;27;45433;-41
2022/05/11 07:17:39;;;;;;;;;9.75;9.75;;;;;31.09;30.35;100965.47;5097588;27;45263;-40
2022/05/11 07:20:11;;;;;;;;;9.00;6.25;;;;;32.91;26.61;100962.81;5097831;27;45523;-41
2022/05/11 07:22:38;;;;;;;;;8.60;7.00;;;;;34.28;23.49;100961.41;5097447;27;47426;-41
2022/05/11 07:25:04;;;;;;;;;6.00;4.40;;;;;35.42;23.42;100957.97;5097436;27;45321;-42
2022/05/11 07:27:30;;;;;;;;;6.40;5.00;;;;;36.34;23.81;100963.44;5097846;27;45457;-42
2022/05/11 07:29:55;;;;;;;;;5.75;4.50;;;;;37.06;20.28;100963.25;5097919;27;45410;-42
2022/05/11 07:32:23;;;;;;;;;7.25;2.50;;;;;37.86;18.84;100966.78;5097339;27;46270;-42
2022/05/11 07:34:49;;;;;;;;;4.00;4.00;;;;;38.57;17.70;100965.63;5096214;27;45375;-39
2022/05/11 07:37:15;;;;;;;;;7.60;5.00;;;;;39.31;20.03;100958.81;5097604;27;45428;-42
2022/05/11 07:39:40;;;;;;;;;4.00;3.00;;;;;40.11;16.97;100961.59;5097880;27;46075;-43
2022/05/11 07:42:06;;;;;;;;;5.25;3.00;;;;;40.78;16.30;100954.84;5097368;27;45433;-42
2022/05/11 07:44:32;;;;;;;;;2.20;2.20;;;;;41.43;16.03;100951.47;5097636;27;45421;-42
2022/05/11 07:46:57;;;;;;;;;4.00;4.00;;;;;42.11;14.69;100968.28;5097466;27;45461;-41
2022/05/11 07:49:23;;;;;;;;;3.00;3.00;;;;;42.66;14.98;100963.06;5097696;27;45404;-40
2022/05/11 07:51:50;;;;;;;;;3.25;3.25;;;;;43.07;13.64;100965.34;5097179;27;46050;-42
2022/05/11 07:54:16;;;;;;;;;1.80;1.80;;;;;43.60;13.50;100959.41;5096271;27;45382;-42
2022/05/11 08:02:09;;;;;;;;;4.60;3.20;;;;;44.93;12.87;100972.09;5096923;27;45487;-42
2022/05/11 08:04:35;;;;;;;;;4.00;2.50;;;;;44.88;12.11;100964.00;5095372;27;45451;-40
2022/05/11 08:07:01;;;;;;;;;4.40;4.00;;;;;44.98;12.85;100973.78;5097321;27;45333;-41
2022/05/11 08:09:27;;;;;;;;;4.60;3.60;;;;;45.39;12.33;100971.25;5097225;27;45576;-41
2022/05/11 08:11:55;;;;;;;;;3.00;3.00;;;;;45.78;11.26;100977.44;5096887;27;45430;-42
2022/05/11 08:14:21;;;;;;;;;4.60;4.00;;;;;46.37;13.30;100978.59;5096580;27;45504;-41
2022/05/11 08:16:52;;;;;;;;;5.40;5.40;;;;;46.79;11.09;100968.97;5096717;27;45424;-41
2022/05/11 08:19:21;;;;;;;;;3.00;3.00;;;;;47.20;11.83;100969.72;5097011;27;45467;-41
2022/05/11 08:21:48;;;;;;;;;3.80;2.40;;;;;47.49;10.79;100964.28;5096299;27;45382;-42
2022/05/11 08:24:14;;;;;;;;;3.00;3.00;;;;;47.82;13.26;100960.44;5096536;27;45281;-42
2022/05/11 08:26:40;;;;;;;;;3.80;3.80;;;;;47.92;11.26;100964.53;5096525;27;45350;-42
2022/05/11 08:29:06;;;;;;;;;4.00;4.00;;;;;48.13;10.36;100961.00;5096669;27;45405;-43
2022/05/11 08:34:17;;;;;;;;;1.20;1.20;;;;;48.63;10.07;100959.09;5096485;27;45451;-41
2022/05/11 08:36:45;;;;;;;;;1.75;1.75;;;;;48.61;10.39;100964.31;5096484;27;45387;-41
2022/05/11 08:39:10;;;;;;;;;4.00;4.00;;;;;49.11;10.22;100975.66;5096671;27;45334;-42
2022/05/11 08:41:45;;;;;;;;;4.00;4.00;;;;;48.95;10.60;100970.41;5096307;27;45430;-42
2022/05/11 08:44:47;;;;;;;;;3.00;2.40;;;;;48.94;10.33;100970.81;5096318;27;45449;-41
2022/05/11 08:47:21;;;;;;;;;5.80;3.40;;;;;49.37;9.86;100974.41;5036499;28;45581;-40
2022/05/11 08:49:50;;;;;;;;;4.60;3.00;;;;;49.73;9.17;100970.66;5053713;28;45510;-41
2022/05/11 08:52:38;;;;;;;;;6.00;4.00;;;;;49.95;9.60;100960.91;5053051;28;46087;-41
2022/05/11 08:55:29;;;;;;;;;4.80;3.60;;;;;50.33;9.87;100966.78;5053476;28;45515;-41
2022/05/11 08:57:55;;;;;;;;;4.00;4.00;;;;;50.74;8.53;100961.25;5053183;28;45468;-44
2022/05/11 09:00:22;;;;;;;;;1.40;1.40;;;;;50.82;10.62;100961.97;5053529;28;45743;-41
2022/05/11 09:02:59;;;;;;;;;3.00;3.00;;;;;51.03;7.77;100967.47;5053080;28;45522;-41
2022/05/11 09:05:28;;;;;;;;;6.00;3.00;;;;;51.23;11.23;100964.06;5055814;28;45414;-41
2022/05/11 09:07:55;;;;;;;;;2.00;1.60;;;;;50.55;8.05;100973.13;5039953;28;45414;-43
2022/05/11 09:10:28;;;;;;;;;3.60;3.60;;;;;50.76;8.45;100963.66;5056930;28;45392;-41
2022/05/11 09:13:10;;;;;;;;;4.00;4.00;;;;;50.90;8.68;100963.53;5056464;28;46161;-41
2022/05/11 09:15:53;;;;;;;;;2.00;1.40;;;;;51.47;8.96;100971.50;5056411;28;45548;-43
2022/05/11 09:18:21;;;;;;;;;1.80;1.80;;;;;51.57;7.16;100972.63;5056850;28;45325;-43
2022/05/11 09:20:50;;;;;;;;;1.80;1.80;;;;;51.62;8.58;100970.09;5056741;28;45400;-47
2022/05/11 09:23:29;;;;;;;;;1.20;1.20;;;;;51.77;7.89;100973.56;5086840;27;45820;-42
2022/05/11 09:26:00;;;;;;;;;2.80;2.20;;;;;52.20;7.83;100966.53;5099259;27;45304;-41
2022/05/11 09:28:29;;;;;;;;;2.00;2.00;;;;;52.33;7.46;100979.72;5099461;27;45404;-41
2022/05/11 09:31:13;;;;;;;;;3.20;2.20;;;;;51.96;6.90;100971.31;5099652;27;45292;-41
2022/05/11 09:33:57;;;;;;;;;2.80;1.80;;;;;52.29;7.30;100966.81;5099062;27;45339;-41
2022/05/11 09:36:38;;;;;;;;;2.60;1.40;;;;;52.33;6.44;100965.53;5098994;27;45504;-42
2022/05/11 09:39:16;;;;;;;;;2.60;2.00;;;;;52.54;7.53;100961.53;5099411;27;45450;-41
2022/05/11 09:41:48;;;;;;;;;2.20;2.20;;;;;52.77;6.06;100960.78;5099536;27;45824;-40
2022/05/11 09:44:16;;;;;;;;;3.40;1.20;;;;;52.94;7.88;100960.94;5098872;27;46269;-41
2022/05/11 09:46:42;;;;;;;;;2.00;2.00;;;;;53.22;7.69;100960.41;5098914;27;45323;-41
2022/05/11 09:49:24;;;;;;;;;2.25;2.25;;;;;52.79;8.12;100966.84;5099231;27;45349;-41
2022/05/11 09:51:50;;;;;;;;;1.60;1.60;;;;;52.10;5.86;100959.78;5099226;27;45439;-41
2022/05/11 09:54:18;;;;;;;;;1.20;1.20;;;;;51.97;7.65;100959.56;5098737;27;47258;-41
2022/05/11 09:56:59;;;;;;;;;1.20;1.20;;;;;51.57;7.20;100949.94;5098719;27;45437;-41
2022/05/11 09:59:29;;;;;;;;;0.00;0.00;;;;;51.28;6.80;100961.56;5099070;27;45325;-41
2022/05/11 10:02:00;;;;;;;;;3.00;3.00;;;;;51.03;7.53;100952.50;5099137;27;45369;-41
2022/05/11 10:04:36;;;;;;;;;15.80;13.20;;;;;51.38;7.58;100952.16;5098314;27;47192;-42
2022/05/11 10:07:05;;;;;;;;;54.80;45.60;;;;;51.08;6.77;100955.69;5098555;27;45582;-42
2022/05/11 10:09:40;;;;;;;;;4.40;3.60;;;;;50.88;7.95;100944.16;5098800;27;45429;-41
2022/05/11 10:12:10;;;;;;;;;4.40;2.40;;;;;50.96;7.23;100953.38;5099067;27;45319;-43
2022/05/11 10:23:02;;;;;;;;;3.00;3.00;;;;;50.16;6.67;100963.63;5098660;27;45331;-41
2022/05/11 10:25:35;;;;;;;;;1.00;1.00;;;;;50.15;6.50;100953.53;5098580;27;45471;-41
2022/05/11 10:28:21;;;;;;;;;2.80;2.80;;;;;50.56;6.35;100943.59;5098622;27;45395;-41
2022/05/11 10:30:55;;;;;;;;;8.20;5.80;;;;;50.75;7.14;100951.53;5098254;27;45448;-41
2022/05/11 10:33:45;;;;;;;;;1.40;1.20;;;;;50.61;7.33;100946.78;5114503;27;45364;-42
2022/05/11 10:36:28;;;;;;;;;1.00;1.00;;;;;50.76;6.86;100950.28;5097999;27;46234;-42
2022/05/11 10:39:12;;;;;;;;;3.40;1.80;;;;;50.85;7.81;100955.47;5098158;27;45524;-42
2022/05/11 10:42:01;;;;;;;;;1.20;1.20;;;;;51.00;8.38;100951.31;5098260;27;45358;-42
2022/05/11 10:45:02;;;;;;;;;1.00;0.20;;;;;50.73;7.88;100953.16;5098212;27;45599;-42
2022/05/11 10:47:40;;;;;;;;;4.20;3.00;;;;;50.97;8.09;100948.53;5054843;28;46277;-43
2022/05/11 10:50:10;;;;;;;;;1.40;1.40;;;;;51.14;7.75;100950.38;5054945;28;45322;-43
2022/05/11 10:52:50;;;;;;;;;1.00;1.00;;;;;51.00;8.02;100942.81;5055213;28;45507;-42
2022/05/11 10:55:15;;;;;;;;;3.20;1.40;;;;;50.79;7.83;100934.50;5055355;28;45464;-43
2022/05/11 10:58:24;;;;;;;;;1.25;1.25;;;;;49.91;8.69;100932.66;5054897;28;46194;-42
2022/05/11 11:01:09;;;;;;;;;2.20;2.20;;;;;49.66;8.79;100935.56;5054755;28;45804;-41
2022/05/11 11:04:21;;;;;;;;;2.80;2.80;;;;;49.19;8.52;100928.44;5054698;28;45445;-41
2022/05/11 11:07:13;;;;;;;;;1.60;1.60;;;;;48.18;9.33;100926.75;4975574;28;45457;-41
2022/05/11 11:10:12;;;;;;;;;3.60;3.60;;;;;47.49;9.68;100911.56;4970028;28;46364;-41
2022/05/11 11:12:51;;;;;;;;;2.40;1.20;;;;;46.82;9.73;100933.59;4975202;28;45479;-41
2022/05/11 11:15:20;;;;;;;;;2.00;0.00;;;;;45.47;10.39;100933.63;4974914;28;45625;-43
2022/05/11 11:17:46;;;;;;;;;2.00;1.20;;;;;43.55;11.83;100924.09;4975304;28;45392;-42
2022/05/11 11:20:15;;;;;;;;;1.80;1.80;;;;;41.25;13.12;100920.94;4975897;28;46825;-42
2022/05/11 11:23:00;;;;;;;;;3.40;1.60;;;;;38.59;14.97;100921.59;4972430;28;45533;-41
2022/05/11 11:25:26;;;;;;;;;0.00;0.00;;;;;36.62;16.75;100906.75;5026398;28;45439;-41
2022/05/11 11:28:12;;;;;;;;;3.20;1.40;;;;;35.44;18.48;100916.16;5033502;28;45601;-41
2022/05/11 11:30:40;;;;;;;;;1.20;0.20;;;;;34.35;18.23;100914.91;5033765;28;45630;-40
2022/05/11 11:33:09;;;;;;;;;2.80;1.20;;;;;33.46;19.67;100918.41;5034745;28;45449;-41
2022/05/11 11:35:39;;;;;;;;;1.40;1.40;;;;;32.75;20.41;100920.81;5054114;28;45485;-41
2022/05/11 11:38:06;;;;;;;;;2.60;2.00;;;;;32.03;20.74;100908.75;5054303;28;45622;-42
2022/05/11 11:40:34;;;;;;;;;1.00;1.00;;;;;31.27;22.33;100915.44;5078441;27;45657;-42
2022/05/11 11:43:38;;;;;;;;;2.80;2.80;;;;;30.87;23.44;100899.88;5117760;27;45594;-41
2022/05/11 11:45:50;;;;;;;;;4.20;4.20;;;;;30.61;23.05;100905.38;5117586;27;45378;-41
2022/05/11 11:48:23;;;;;;;;;5.00;2.00;;;;;30.54;23.87;100902.09;5117701;27;45521;-41
2022/05/11 11:51:01;;;;;;;;;2.00;2.00;;;;;30.51;22.26;100900.75;5117327;27;46381;-43
2022/05/11 11:53:51;;;;;;;;;3.00;3.00;;;;;30.28;23.52;100899.38;5117451;27;45459;-43
2022/05/11 11:56:28;;;;;;;;;3.00;1.20;;;;;30.18;23.70;100890.31;5117426;27;45472;-45
2022/05/11 11:59:23;;;;;;;;;2.00;2.00;;;;;29.86;24.64;100896.81;5117520;27;45379;-56
2022/05/11 12:01:51;;;;;;;;;3.00;2.00;;;;;29.51;24.36;100875.59;5116960;27;45322;-48
2022/05/11 12:04:57;;;;;;;;;3.40;2.20;;;;;29.58;24.36;100901.72;5117477;27;45425;-45